Address 0xa9971923c37a0c92ee9208401d34889491b70747 1

 
 
Txn Hash
Block
From
To
Value [Txn Fee]
0xeac5006b233b49e9ab21ad7abcc68b995cc98392e4b2a47bba89c19c7432ab5596663622021-08-01 19:31:587 mins ago0xa9971923c37a0c92ee9208401d34889491b70747OUT 0x6212df9c2efe54c1a72c6b5ebbbeb1c0af12ba3a0 BNB0.00018437
0xcc2d860bcdb8ac45631bb0b51896327ac28fceccd431143dd0f07d1f81f341f196663182021-08-01 19:29:469 mins ago0xa9971923c37a0c92ee9208401d34889491b70747OUT 0x6244e3aba3ea819707182c47b7c3c0d36eb474d20 BNB0.00018425
0x67258ed8213849417030ae70f3dbd40173e853673f11d6996b5e8a69e060d59096662442021-08-01 19:25:4813 mins ago0xa9971923c37a0c92ee9208401d34889491b70747OUT 0x4638e64d3311ed302482b74ceddff760b34799710 BNB0.00021202
0xeaea366d8079d228c16fed7739c3f000d661dca632056983c3c50fd2f1df498996659072021-08-01 19:08:2531 mins ago0xa9971923c37a0c92ee9208401d34889491b70747OUT 0xfce69c8389ec3d6815cd10f57a96d779f72eb7ab0 BNB0.00088358
0x12ddd5944ce11c5df623287778eea682101ecdffd12befb3257d50bc328721c096658102021-08-01 19:03:3136 mins ago0xa9971923c37a0c92ee9208401d34889491b70747OUT 0x67b3b93d913b85b7a44931b53121bdde1ff94ef50 BNB0.00021192
0x39ffd60057287900033d15e7be05f4dade06466aa2486c7688d65d5656f1850596657132021-08-01 18:58:3841 mins ago0xa9971923c37a0c92ee9208401d34889491b70747OUT 0x4638e64d3311ed302482b74ceddff760b34799710 BNB0.0001878789
0x7eddda57e83e2f177f7644b4c33da4d53cbdacf72c73c32815b9145ffca59fac96656682021-08-01 18:56:1643 mins ago0xa9971923c37a0c92ee9208401d34889491b70747OUT 0x6212df9c2efe54c1a72c6b5ebbbeb1c0af12ba3a0 BNB0.000212305
0xcfd12615b743af6586b6fa8de65a3107aeeb16221e4de2031163f84f1833ef3a96654512021-08-01 18:45:1154 mins ago0xa9971923c37a0c92ee9208401d34889491b70747OUT 0x6212df9c2efe54c1a72c6b5ebbbeb1c0af12ba3a0 BNB0.00024372
0x2f7291bf5555357905236f7d494611d2a2d628456ca7c5e3007f5a0f1999ffe596653012021-08-01 18:37:411 hr 1 min ago0xa9971923c37a0c92ee9208401d34889491b70747OUT 0xbd2ec79f2a467813efefe02b8b195ed8187889060 BNB0.000230085
0xfa152f7aca56ed887a9b9285106003c39ddf59ecc85f16151ce62a81d1ed248496651382021-08-01 18:29:321 hr 10 mins ago0xa9971923c37a0c92ee9208401d34889491b70747OUT 0xbd2ec79f2a467813efefe02b8b195ed8187889060 BNB0.0002118
0x5589972649925a1258277bbde1f5be76d93139bf11aac63bbe4daf65afba61ef96648192021-08-01 18:13:351 hr 26 mins ago0xa9971923c37a0c92ee9208401d34889491b70747SELF0xa9971923c37a0c92ee9208401d34889491b707470 BNB0.0002331
0xfaad7664fad7ef5122725ccb9f99a77eea839994deabd31ed07dbf972e248baa96646812021-08-01 18:06:411 hr 32 mins ago0xa9971923c37a0c92ee9208401d34889491b70747OUT 0xfce69c8389ec3d6815cd10f57a96d779f72eb7ab0 BNB0.000264954
0xc5276e603770cd5966e7df8e751aece1e64e73df5fb331e42b824fb0fbccc1c396646022021-08-01 18:02:441 hr 36 mins ago0xa9971923c37a0c92ee9208401d34889491b70747OUT 0x8ae57a7f606b2d91c739c84e7d0b377271ceac000 BNB0.000175375
0x42f5164e25758fad124017326d169d6556731bbdc0f7dfcf197ddd11c0beb0be96643442021-08-01 17:48:421 hr 50 mins ago0xa9971923c37a0c92ee9208401d34889491b70747OUT 0x4638e64d3311ed302482b74ceddff760b34799710 BNB0.00020323
0xdbd91effd022acbaedc195d439fc7b18f1fae3a572268ef6e8f5a469255ac89796641182021-08-01 17:37:192 hrs 2 mins ago0xa9971923c37a0c92ee9208401d34889491b70747SELF0xa9971923c37a0c92ee9208401d34889491b707470 BNB0.0002331
0xfa00c002d3151ef3a1071f976394526da1abe168ecddbe35ffe4dd004075fb4a96641012021-08-01 17:36:272 hrs 3 mins ago0xa9971923c37a0c92ee9208401d34889491b70747OUT 0x6212df9c2efe54c1a72c6b5ebbbeb1c0af12ba3a0 BNB0.0002211
0xb5ac097f5cfcb2e7f04963261b5b536a39586442b30e82c9844ac6e38faafea496640672021-08-01 17:34:452 hrs 4 mins ago0xa9971923c37a0c92ee9208401d34889491b70747SELF0xa9971923c37a0c92ee9208401d34889491b707470 BNB0.0002331
0x64776dd85cdf98c3dfd7d833ef5c65847662f8e7d14e4874ec8bd0e10ff9342596640512021-08-01 17:33:572 hrs 5 mins ago0xa9971923c37a0c92ee9208401d34889491b70747OUT 0x67b3b93d913b85b7a44931b53121bdde1ff94ef50 BNB0.000184135
0x6fa5ab8af42e6829f8c6f84389c9950106d50d7fd9331862ac00eb1aec89f12e96639112021-08-01 17:26:572 hrs 12 mins ago0xa9971923c37a0c92ee9208401d34889491b70747SELF0xa9971923c37a0c92ee9208401d34889491b707470 BNB0.0002331
0x132e90055238fc49ee8cfd43f1ceaf0490592709263e136b68a64c795774b86296638092021-08-01 17:21:512 hrs 17 mins ago0xa9971923c37a0c92ee9208401d34889491b70747SELF0xa9971923c37a0c92ee9208401d34889491b707470 BNB0.00011655
0xf0226b118f5ca408967bd415ded159adcfb5427979169e37f27c2a318873a44996637922021-08-01 17:21:002 hrs 18 mins ago0xa9971923c37a0c92ee9208401d34889491b70747SELF0xa9971923c37a0c92ee9208401d34889491b707470 BNB0.0002331
0xb538828283cb85c537708c99df02d081a3ee61a712d4fa14cb1ef8bba9a37cc596637552021-08-01 17:19:092 hrs 20 mins ago0xa9971923c37a0c92ee9208401d34889491b70747OUT 0x4638e64d3311ed302482b74ceddff760b34799710 BNB0.00020348
0xb730d0c0f9263f353a64dfcd2fd45f23224092037efb4996dfb98a5db5e7a0d596637222021-08-01 17:17:112 hrs 22 mins ago0xa9971923c37a0c92ee9208401d34889491b70747SELF0xa9971923c37a0c92ee9208401d34889491b707470 BNB0.00034965
0x2f8fff00612c37fb3e8553f8a84437f1a83d43a93be1d765fac69fb0eb38f9d496636022021-08-01 17:11:062 hrs 28 mins ago0xa9971923c37a0c92ee9208401d34889491b70747SELF0xa9971923c37a0c92ee9208401d34889491b707470 BNB0.00011655
0x2393a18180f0e4b821c00c6de2806a3ca5a86f0499d921f2ac0f9e2a5e65ab3796634892021-08-01 17:05:272 hrs 34 mins ago0xa9971923c37a0c92ee9208401d34889491b70747OUT 0x6212df9c2efe54c1a72c6b5ebbbeb1c0af12ba3a0 BNB0.000184135
[ Download CSV Export 
Parent Txn Hash Block From To Value
Loading

Contract Name:
0 BNB

Compiler Version
0

Optimization Enabled:
0 BNB

Other Settings:
-NA-
Block Transaction Gas Used Reward
Age Block Fee Address BC Fee Address Voting Power Jailed Incoming
Block Uncle Number Difficulty Gas Used Reward
Loading
Loading
Make sure to use the "Vote Down" button for any spammy posts, and the "Vote Up" for interesting conversations.